Time;durP1;ratioP1;P1;durP2;ratioP2;P2;SDS_P1;SDS_P2;PMS_P1;PMS_P2;Temp;Humidity;BMP_temperature;BMP_pressure;BME280_temperature;BME280_humidity;BME280_pressure;Samples;Min_cycle;Max_cycle;Signal;HPM_P1;HPM_P2
2021/11/25 00:00:49;;;;;;;7.07;5.37;;;2.30;99.90;;;;;;4996787;28;20171;-65
2021/11/25 00:03:14;;;;;;;8.00;5.43;;;2.40;99.90;;;;;;4994812;28;20610;-66
2021/11/25 00:05:41;;;;;;;8.70;4.60;;;2.30;99.90;;;;;;4996462;28;20485;-66
2021/11/25 00:08:07;;;;;;;6.07;5.47;;;2.30;99.90;;;;;;4996131;28;20572;-65
2021/11/25 00:10:34;;;;;;;7.43;6.53;;;2.30;99.90;;;;;;4996378;28;20172;-66
2021/11/25 00:13:00;;;;;;;10.50;4.88;;;2.30;99.90;;;;;;4996121;28;20422;-67
2021/11/25 00:15:26;;;;;;;5.13;4.07;;;2.30;99.90;;;;;;4996440;28;20202;-65
2021/11/25 00:17:52;;;;;;;10.02;5.63;;;2.30;99.90;;;;;;4995936;28;20171;-66
2021/11/25 00:20:19;;;;;;;4.70;4.40;;;2.20;99.90;;;;;;4996161;28;20243;-65
2021/11/25 00:22:45;;;;;;;9.07;4.53;;;2.20;99.90;;;;;;4995997;28;20213;-66
2021/11/25 00:25:11;;;;;;;6.33;5.83;;;2.20;99.90;;;;;;4996012;28;20559;-66
2021/11/25 00:27:40;;;;;;;4.57;4.15;;;2.20;99.90;;;;;;4995622;28;20465;-65
2021/11/25 00:30:07;;;;;;;14.05;4.28;;;2.20;99.90;;;;;;4995933;28;20159;-67
2021/11/25 00:32:33;;;;;;;6.03;3.90;;;2.20;99.90;;;;;;4995750;28;20175;-65
2021/11/25 00:34:58;;;;;;;5.60;4.40;;;2.20;99.90;;;;;;4995839;28;20170;-64
2021/11/25 00:37:24;;;;;;;6.30;5.53;;;2.20;99.90;;;;;;4994161;28;20426;-68
2021/11/25 00:39:50;;;;;;;8.53;3.97;;;2.20;99.90;;;;;;4995627;28;20183;-66
2021/11/25 00:42:15;;;;;;;8.10;4.47;;;2.20;99.90;;;;;;4995833;28;20203;-66
2021/11/25 00:44:41;;;;;;;7.07;4.67;;;2.20;99.90;;;;;;4995672;28;20192;-66
2021/11/25 00:47:07;;;;;;;6.30;4.50;;;2.20;99.90;;;;;;4995094;28;20254;-66
2021/11/25 00:49:32;;;;;;;8.37;6.33;;;2.20;99.90;;;;;;4995664;28;20171;-67
2021/11/25 00:51:58;;;;;;;7.57;5.93;;;2.20;99.90;;;;;;4995701;28;20176;-67
2021/11/25 00:54:24;;;;;;;5.87;5.10;;;2.20;99.90;;;;;;4995438;28;20190;-66
2021/11/25 00:56:49;;;;;;;4.63;4.22;;;2.20;99.90;;;;;;4994812;28;20221;-68
2021/11/25 00:59:15;;;;;;;6.77;4.90;;;2.30;99.90;;;;;;4980990;28;20270;-67
2021/11/25 01:01:41;;;;;;;5.20;4.40;;;2.20;99.90;;;;;;4975931;28;20204;-68
2021/11/25 01:04:07;;;;;;;7.70;4.63;;;2.20;99.90;;;;;;4975611;28;20288;-67
2021/11/25 01:06:33;;;;;;;9.40;5.70;;;2.20;99.90;;;;;;4975816;28;20453;-68
2021/11/25 01:08:59;;;;;;;3.83;3.53;;;2.30;99.90;;;;;;4975996;28;20168;-67
2021/11/25 01:11:25;;;;;;;9.63;4.47;;;2.30;99.90;;;;;;4975726;28;20172;-67
2021/11/25 01:13:52;;;;;;;6.82;5.13;;;2.30;99.90;;;;;;4975435;28;20927;-68
2021/11/25 01:16:20;;;;;;;9.30;4.93;;;2.30;99.90;;;;;;4975202;28;20251;-66
2021/11/25 01:18:45;;;;;;;9.63;7.53;;;2.30;99.90;;;;;;4975464;28;20271;-67
2021/11/25 01:21:11;;;;;;;7.87;4.47;;;2.20;99.90;;;;;;4975594;28;20662;-67
2021/11/25 01:23:37;;;;;;;4.90;3.40;;;2.30;99.90;;;;;;4975251;28;20215;-67
2021/11/25 01:26:02;;;;;;;6.27;4.40;;;2.30;99.90;;;;;;4975620;28;20187;-67
2021/11/25 01:28:29;;;;;;;4.47;3.87;;;2.40;99.90;;;;;;4975038;28;20272;-65
2021/11/25 01:30:58;;;;;;;6.15;5.05;;;2.40;99.90;;;;;;4975405;28;20443;-67
2021/11/25 01:33:24;;;;;;;6.75;4.03;;;2.40;99.90;;;;;;4975229;28;20192;-66
2021/11/25 01:35:52;;;;;;;5.25;4.50;;;2.40;99.90;;;;;;4974027;28;20334;-66
2021/11/25 01:38:18;;;;;;;5.38;4.20;;;2.50;99.90;;;;;;4974587;28;20267;-67
2021/11/25 01:40:45;;;;;;;6.20;5.43;;;2.40;99.90;;;;;;4975403;28;20220;-66
2021/11/25 01:43:11;;;;;;;3.97;3.55;;;2.30;99.90;;;;;;4975063;28;20845;-68
2021/11/25 01:45:38;;;;;;;8.60;4.03;;;2.40;99.90;;;;;;4975385;28;20164;-65
2021/11/25 01:48:04;;;;;;;9.27;6.47;;;2.30;99.90;;;;;;4974749;28;20175;-67
2021/11/25 01:50:32;;;;;;;7.97;4.95;;;2.40;99.90;;;;;;4975102;28;20176;-66
2021/11/25 01:52:59;;;;;;;10.40;4.82;;;2.30;99.90;;;;;;4975212;28;20538;-66
2021/11/25 01:55:25;;;;;;;5.03;4.03;;;2.40;99.90;;;;;;4975039;28;20251;-69
2021/11/25 01:57:52;;;;;;;9.00;5.65;;;2.40;99.90;;;;;;4977708;28;20171;-67
2021/11/25 02:00:36;;;;;;;10.18;5.55;;;2.40;99.90;;;;;;4993217;28;20207;-67
2021/11/25 02:03:04;;;;;;;7.07;4.60;;;2.30;99.90;;;;;;4994092;28;20294;-65
2021/11/25 02:05:30;;;;;;;7.30;5.00;;;2.30;99.90;;;;;;4994208;28;20309;-66
2021/11/25 02:07:56;;;;;;;8.50;4.97;;;2.30;99.90;;;;;;4993691;28;20262;-65
2021/11/25 02:10:22;;;;;;;5.90;4.13;;;2.40;99.90;;;;;;4994691;28;20234;-66
2021/11/25 02:12:47;;;;;;;8.63;6.05;;;2.40;99.90;;;;;;4994115;28;20202;-67
2021/11/25 02:15:15;;;;;;;6.90;5.13;;;2.30;99.90;;;;;;4994063;28;20246;-66
2021/11/25 02:17:42;;;;;;;4.00;3.60;;;2.30;99.90;;;;;;4993568;28;20178;-67
2021/11/25 02:20:10;;;;;;;4.55;3.58;;;2.40;99.90;;;;;;4994136;28;20226;-67
2021/11/25 02:22:38;;;;;;;6.07;5.55;;;2.30;99.90;;;;;;4992778;28;20215;-68
2021/11/25 02:25:05;;;;;;;6.55;4.60;;;2.40;99.90;;;;;;4993985;28;20206;-66
2021/11/25 02:27:31;;;;;;;6.60;5.90;;;2.30;99.90;;;;;;4993594;28;20171;-67
2021/11/25 02:29:57;;;;;;;10.40;6.30;;;2.30;99.90;;;;;;4994072;28;20175;-67
2021/11/25 02:32:29;;;;;;;9.30;4.30;;;2.40;99.90;;;;;;4993851;28;20216;-66
2021/11/25 02:34:55;;;;;;;9.50;4.35;;;2.40;99.90;;;;;;4993765;28;20421;-67
2021/11/25 02:37:21;;;;;;;9.17;6.80;;;2.40;99.90;;;;;;4993632;28;20172;-66
2021/11/25 02:39:47;;;;;;;9.83;5.90;;;2.40;99.90;;;;;;4994032;28;20274;-67
2021/11/25 02:42:15;;;;;;;5.25;4.22;;;2.40;99.90;;;;;;4993616;28;20790;-67
2021/11/25 02:44:40;;;;;;;4.97;3.47;;;2.40;99.90;;;;;;4993602;28;20351;-67
2021/11/25 02:47:06;;;;;;;11.83;5.83;;;2.40;99.90;;;;;;4993503;28;20250;-67
2021/11/25 02:49:31;;;;;;;5.07;4.60;;;2.40;99.90;;;;;;4995230;28;20202;-67
2021/11/25 02:51:57;;;;;;;7.67;4.80;;;2.40;99.90;;;;;;4997703;28;20600;-67
2021/11/25 02:54:23;;;;;;;6.50;4.50;;;2.40;99.90;;;;;;4997809;28;20621;-66
2021/11/25 02:56:48;;;;;;;10.00;5.53;;;2.40;99.90;;;;;;4997356;28;20229;-67
2021/11/25 02:59:14;;;;;;;7.53;4.97;;;2.50;99.90;;;;;;4983138;28;20250;-67
2021/11/25 03:01:40;;;;;;;15.03;4.33;;;2.50;99.90;;;;;;4978062;28;20267;-65
2021/11/25 03:04:07;;;;;;;6.77;6.13;;;2.50;99.90;;;;;;4977719;28;20212;-66
2021/11/25 03:06:33;;;;;;;10.63;4.97;;;2.40;99.90;;;;;;4977997;28;20534;-67
2021/11/25 03:08:59;;;;;;;6.95;4.28;;;2.50;99.90;;;;;;4978523;28;20266;-68
2021/11/25 03:11:28;;;;;;;6.55;5.55;;;2.40;99.90;;;;;;4977996;28;20172;-67
2021/11/25 03:13:58;;;;;;;11.13;4.82;;;2.40;99.90;;;;;;4977900;28;20207;-67
2021/11/25 03:16:25;;;;;;;4.10;3.80;;;2.40;99.90;;;;;;4977578;28;20223;-68
2021/11/25 03:18:52;;;;;;;4.50;4.10;;;2.40;99.90;;;;;;4977824;28;20195;-65
2021/11/25 03:21:19;;;;;;;11.27;5.63;;;2.40;99.90;;;;;;4977685;28;20199;-67
2021/11/25 03:23:48;;;;;;;7.22;5.40;;;2.30;99.90;;;;;;4977485;28;20286;-66
2021/11/25 03:26:16;;;;;;;8.65;4.68;;;2.40;99.90;;;;;;4977600;28;20187;-65
2021/11/25 03:28:44;;;;;;;7.85;4.85;;;2.40;99.90;;;;;;4977700;28;20193;-65
2021/11/25 03:31:16;;;;;;;5.85;4.88;;;2.40;99.90;;;;;;4977728;28;20218;-65
2021/11/25 03:33:42;;;;;;;5.35;3.83;;;2.40;99.90;;;;;;4975868;28;20203;-66
2021/11/25 03:36:09;;;;;;;10.30;6.47;;;2.40;99.90;;;;;;4977285;28;20173;-65
2021/11/25 03:38:36;;;;;;;7.15;5.95;;;2.50;99.90;;;;;;4977100;28;20469;-66
2021/11/25 03:41:02;;;;;;;5.05;3.92;;;2.50;99.90;;;;;;4977467;28;20180;-66
2021/11/25 03:43:28;;;;;;;12.18;4.35;;;2.50;99.90;;;;;;4977221;28;20253;-67
2021/11/25 03:45:54;;;;;;;7.20;5.53;;;2.60;99.90;;;;;;4977467;28;20214;-67
2021/11/25 03:48:28;;;;;;;9.73;5.13;;;2.60;99.90;;;;;;4976922;28;20396;-66
2021/11/25 03:50:54;;;;;;;8.25;4.75;;;2.50;99.90;;;;;;4977446;28;20491;-65
2021/11/25 03:53:20;;;;;;;6.90;5.20;;;2.40;99.90;;;;;;4977040;28;20203;-67
2021/11/25 03:55:46;;;;;;;5.87;5.37;;;2.50;99.90;;;;;;4977225;28;20168;-66
2021/11/25 03:58:11;;;;;;;16.70;6.57;;;2.60;99.90;;;;;;4982463;28;20199;-67
2021/11/25 04:00:38;;;;;;;7.60;4.10;;;2.50;99.90;;;;;;4995933;28;20582;-64
2021/11/25 04:03:04;;;;;;;8.95;5.32;;;2.60;99.90;;;;;;4994785;28;20215;-65
2021/11/25 04:05:30;;;;;;;10.43;7.30;;;2.60;99.90;;;;;;4996475;28;20167;-66
2021/11/25 04:07:56;;;;;;;7.30;4.05;;;2.60;99.90;;;;;;4995984;28;20552;-66
2021/11/25 04:10:22;;;;;;;9.13;4.17;;;2.60;99.90;;;;;;4996524;28;20246;-66
2021/11/25 04:12:48;;;;;;;7.57;5.50;;;2.70;99.90;;;;;;4996447;28;20191;-66
2021/11/25 04:15:15;;;;;;;7.97;4.78;;;2.70;99.90;;;;;;4996205;28;20175;-66
2021/11/25 04:17:41;;;;;;;7.93;4.65;;;2.60;99.90;;;;;;4995747;28;20203;-65
2021/11/25 04:20:08;;;;;;;11.53;6.27;;;2.60;99.90;;;;;;4996163;28;20253;-66
2021/11/25 04:22:33;;;;;;;8.40;5.18;;;2.60;99.90;;;;;;4996022;28;20666;-65
2021/11/25 04:24:59;;;;;;;6.23;4.67;;;2.70;99.90;;;;;;4996131;28;20183;-67
2021/11/25 04:27:25;;;;;;;9.20;7.10;;;2.70;99.90;;;;;;4995691;28;20183;-65
2021/11/25 04:30:23;;;;;;;8.77;6.20;;;2.80;99.90;;;;;;4996249;28;20171;-66
2021/11/25 04:35:35;;;;;;;6.03;4.53;;;2.80;99.90;;;;;;4996304;28;20187;-65
2021/11/25 04:38:02;;;;;;;7.95;5.65;;;2.80;99.90;;;;;;4995465;28;20177;-67
2021/11/25 04:40:33;;;;;;;9.32;6.28;;;2.70;99.90;;;;;;4995728;28;20179;-66
2021/11/25 04:43:00;;;;;;;8.40;5.95;;;2.70;99.90;;;;;;4994304;28;20617;-66
2021/11/25 04:45:25;;;;;;;6.50;4.65;;;2.70;99.90;;;;;;4995870;28;20164;-67
2021/11/25 04:47:51;;;;;;;9.07;5.27;;;2.70;99.90;;;;;;4995273;28;20175;-66
2021/11/25 04:50:17;;;;;;;5.47;4.20;;;2.80;99.90;;;;;;4995863;28;20206;-65
2021/11/25 04:52:43;;;;;;;7.80;5.87;;;2.70;99.90;;;;;;4995544;28;20254;-66
2021/11/25 04:55:09;;;;;;;9.83;6.53;;;2.80;99.90;;;;;;4995863;28;20892;-66
2021/11/25 04:57:35;;;;;;;7.15;6.38;;;2.80;99.90;;;;;;4992738;28;20179;-64
2021/11/25 05:00:01;;;;;;;7.93;6.43;;;2.80;99.90;;;;;;4976061;28;20172;-66
2021/11/25 05:02:26;;;;;;;9.48;5.35;;;2.90;99.90;;;;;;4974697;28;20196;-66
2021/11/25 05:04:52;;;;;;;7.80;6.30;;;2.90;99.90;;;;;;4975647;28;20191;-66
2021/11/25 05:07:18;;;;;;;5.53;4.93;;;2.90;99.90;;;;;;4975539;28;20207;-66
2021/11/25 05:09:43;;;;;;;11.57;6.13;;;2.90;99.90;;;;;;4975982;28;20164;-66
2021/11/25 05:12:09;;;;;;;11.13;5.17;;;2.90;99.90;;;;;;4974829;28;20172;-66
2021/11/25 05:14:35;;;;;;;9.17;5.23;;;2.90;99.90;;;;;;4975446;28;20653;-66
2021/11/25 05:17:00;;;;;;;8.33;5.77;;;2.90;99.90;;;;;;4975430;28;20530;-66
2021/11/25 05:19:26;;;;;;;9.67;7.87;;;2.90;99.90;;;;;;4975752;28;20599;-66
2021/11/25 05:21:51;;;;;;;7.63;4.83;;;2.90;99.90;;;;;;4975530;28;20254;-66
2021/11/25 05:24:18;;;;;;;8.43;6.50;;;2.90;99.90;;;;;;4975272;28;20207;-66
2021/11/25 05:26:45;;;;;;;9.65;5.38;;;2.90;99.90;;;;;;4973737;28;20178;-66
2021/11/25 05:29:10;;;;;;;9.00;5.53;;;2.90;99.90;;;;;;4975431;28;20194;-66
2021/11/25 05:31:36;;;;;;;10.33;4.83;;;2.90;99.90;;;;;;4975570;28;20176;-66
2021/11/25 05:34:02;;;;;;;10.37;5.27;;;2.80;99.90;;;;;;4975271;28;20246;-66
2021/11/25 05:36:27;;;;;;;9.60;5.13;;;2.80;99.90;;;;;;4974927;28;20167;-66
2021/11/25 05:38:53;;;;;;;8.60;4.90;;;2.80;99.90;;;;;;4975247;28;20168;-65
2021/11/25 05:41:19;;;;;;;6.93;3.77;;;2.80;99.90;;;;;;4975230;28;20172;-65
2021/11/25 05:43:44;;;;;;;11.10;7.90;;;2.80;99.90;;;;;;4974857;28;20687;-67
2021/11/25 05:46:10;;;;;;;6.20;5.60;;;2.90;99.90;;;;;;4975007;28;20178;-68
2021/11/25 05:48:36;;;;;;;5.80;4.93;;;2.90;99.90;;;;;;4974943;28;20228;-66
2021/11/25 05:51:01;;;;;;;7.00;4.93;;;2.90;99.90;;;;;;4974841;28;20168;-66
2021/11/25 05:53:27;;;;;;;11.17;7.20;;;2.80;99.90;;;;;;4975210;28;20222;-66
2021/11/25 05:55:53;;;;;;;13.50;5.17;;;2.90;99.90;;;;;;4975201;28;20399;-66
2021/11/25 05:58:18;;;;;;;9.20;6.50;;;2.90;99.90;;;;;;4981362;28;20222;-66
2021/11/25 06:00:44;;;;;;;9.33;5.40;;;2.90;99.90;;;;;;4994534;28;20172;-66
2021/11/25 06:03:10;;;;;;;14.57;7.65;;;2.90;99.90;;;;;;4994088;28;20211;-66
2021/11/25 06:05:36;;;;;;;9.60;7.40;;;2.80;99.90;;;;;;4994427;28;20168;-66
2021/11/25 06:08:02;;;;;;;8.97;7.27;;;2.90;99.90;;;;;;4992333;28;20765;-65
2021/11/25 06:10:29;;;;;;;9.05;6.70;;;3.00;99.90;;;;;;4993520;28;20167;-65
2021/11/25 06:12:55;;;;;;;11.98;9.77;;;3.00;99.90;;;;;;4993434;28;20202;-67
2021/11/25 06:15:22;;;;;;;9.20;6.80;;;2.90;99.90;;;;;;4992552;28;20669;-67
2021/11/25 06:17:48;;;;;;;10.55;5.82;;;2.80;99.90;;;;;;4993526;28;20190;-67
2021/11/25 06:20:15;;;;;;;11.93;5.20;;;2.90;99.90;;;;;;4992378;28;20183;-67
2021/11/25 06:22:43;;;;;;;9.57;7.55;;;2.90;99.90;;;;;;4993821;28;20537;-66
2021/11/25 06:25:11;;;;;;;9.77;6.20;;;2.90;99.90;;;;;;4993798;28;20171;-65
2021/11/25 06:27:38;;;;;;;11.30;6.68;;;2.90;99.90;;;;;;4993506;28;20172;-65
2021/11/25 06:30:06;;;;;;;11.85;6.95;;;2.90;99.90;;;;;;4989712;28;20179;-68
2021/11/25 06:32:32;;;;;;;9.55;5.00;;;2.90;99.90;;;;;;4973919;28;20183;-67
2021/11/25 06:34:58;;;;;;;9.15;6.40;;;2.90;99.90;;;;;;4974010;28;20180;-67
2021/11/25 06:37:24;;;;;;;9.93;5.90;;;3.00;99.90;;;;;;4974008;28;20681;-67
2021/11/25 06:39:50;;;;;;;15.80;10.47;;;3.10;99.90;;;;;;4974293;28;20435;-65
2021/11/25 06:42:16;;;;;;;15.70;6.17;;;3.10;99.90;;;;;;4972698;28;20700;-67
2021/11/25 06:44:41;;;;;;;10.05;6.10;;;3.10;99.90;;;;;;4974195;28;20219;-67
2021/11/25 06:47:07;;;;;;;12.57;6.70;;;3.10;99.90;;;;;;4973921;28;20176;-68
2021/11/25 06:49:34;;;;;;;9.43;7.00;;;3.10;99.90;;;;;;4973844;28;20175;-66
2021/11/25 06:51:59;;;;;;;13.77;6.18;;;3.10;99.90;;;;;;4973886;28;20191;-66
2021/11/25 06:54:25;;;;;;;5.60;5.10;;;3.00;99.90;;;;;;4974128;28;20200;-67
2021/11/25 06:56:51;;;;;;;8.20;5.77;;;3.00;99.90;;;;;;4974012;28;20180;-66
2021/11/25 06:59:17;;;;;;;7.73;5.10;;;3.00;99.90;;;;;;4973841;28;20328;-66
2021/11/25 07:01:43;;;;;;;9.03;4.20;;;2.90;99.90;;;;;;4973563;28;20187;-66
2021/11/25 07:04:09;;;;;;;7.65;4.78;;;2.90;99.90;;;;;;4972661;28;20724;-64
2021/11/25 07:06:34;;;;;;;6.63;5.97;;;2.90;99.90;;;;;;4974527;28;20196;-66
2021/11/25 07:09:00;;;;;;;12.80;7.40;;;2.90;99.90;;;;;;4974324;28;20176;-65
2021/11/25 07:11:28;;;;;;;9.00;8.05;;;2.90;99.90;;;;;;4973715;28;20184;-65
2021/11/25 07:13:53;;;;;;;11.00;8.60;;;2.90;99.90;;;;;;4973556;28;20231;-65
2021/11/25 07:16:19;;;;;;;8.17;5.50;;;2.90;99.90;;;;;;4973193;28;20215;-66
2021/11/25 07:18:45;;;;;;;9.80;5.53;;;2.90;99.90;;;;;;4973455;28;20180;-66
2021/11/25 07:21:10;;;;;;;8.87;6.47;;;2.90;99.90;;;;;;4973955;28;20226;-67
2021/11/25 07:23:36;;;;;;;7.90;6.27;;;3.00;99.90;;;;;;4973572;28;20218;-66
2021/11/25 07:26:06;;;;;;;7.40;5.97;;;3.00;99.90;;;;;;4973825;28;20184;-66
2021/11/25 07:28:32;;;;;;;10.65;6.43;;;2.90;99.90;;;;;;4973692;28;20255;-66
2021/11/25 07:30:58;;;;;;;13.03;5.27;;;2.90;99.90;;;;;;4973573;28;20249;-66
2021/11/25 07:33:24;;;;;;;8.60;5.60;;;;;;;;;;4973451;28;20199;-66
2021/11/25 07:35:50;;;;;;;11.63;5.65;;;3.00;99.90;;;;;;4975055;28;20172;-66
2021/11/25 07:38:16;;;;;;;4.10;3.63;;;3.00;99.90;;;;;;4975939;28;20176;-65
2021/11/25 07:40:44;;;;;;;12.63;9.03;;;3.10;99.90;;;;;;4977358;28;20255;-65
2021/11/25 07:43:10;;;;;;;12.80;7.90;;;3.10;99.90;;;;;;4977014;28;20235;-66
2021/11/25 07:45:37;;;;;;;7.72;4.78;;;3.00;99.90;;;;;;4977271;28;20222;-67
2021/11/25 07:48:03;;;;;;;6.00;4.75;;;3.00;99.90;;;;;;4976796;28;20179;-65
2021/11/25 07:50:29;;;;;;;10.60;6.72;;;3.10;99.90;;;;;;4975843;28;20199;-67
2021/11/25 07:52:56;;;;;;;12.10;6.80;;;3.10;99.90;;;;;;4977323;28;20598;-66
2021/11/25 07:55:23;;;;;;;8.00;4.07;;;3.10;99.90;;;;;;4977146;28;20168;-66
2021/11/25 07:57:49;;;;;;;8.00;6.75;;;3.20;99.90;;;;;;4978170;28;20167;-67
2021/11/25 08:00:16;;;;;;;5.78;5.05;;;3.10;99.90;;;;;;4996772;28;20191;-67
2021/11/25 08:02:43;;;;;;;8.25;5.50;;;3.10;99.90;;;;;;4995982;28;20553;-66
2021/11/25 08:05:10;;;;;;;10.95;6.80;;;3.10;99.90;;;;;;4996327;28;20234;-66
2021/11/25 08:07:37;;;;;;;16.60;6.28;;;3.10;99.90;;;;;;4995915;28;20167;-66
2021/11/25 08:10:05;;;;;;;8.23;4.60;;;3.10;99.90;;;;;;4996313;28;20175;-66
2021/11/25 08:12:30;;;;;;;6.65;6.03;;;3.20;99.90;;;;;;4995977;28;20168;-66
2021/11/25 08:14:56;;;;;;;10.87;5.50;;;3.30;99.90;;;;;;4996160;28;20570;-65
2021/11/25 08:17:22;;;;;;;12.57;7.23;;;3.50;99.90;;;;;;4995753;28;20193;-66
2021/11/25 08:19:47;;;;;;;10.73;6.27;;;3.60;99.90;;;;;;4996292;28;20315;-64
2021/11/25 08:22:15;;;;;;;8.80;5.67;;;3.60;99.90;;;;;;4995812;28;20213;-65
2021/11/25 08:24:41;;;;;;;9.85;5.60;;;3.60;99.90;;;;;;4995962;28;20215;-65
2021/11/25 08:27:06;;;;;;;14.00;6.18;;;3.60;99.90;;;;;;4995708;28;20250;-65
2021/11/25 08:29:32;;;;;;;10.40;5.00;;;3.60;99.90;;;;;;4995813;28;20690;-65
2021/11/25 08:31:58;;;;;;;7.73;4.50;;;3.60;99.90;;;;;;4995713;28;20202;-65
2021/11/25 08:34:26;;;;;;;12.30;6.57;;;3.70;99.90;;;;;;4995696;28;20222;-65
2021/11/25 08:36:51;;;;;;;11.98;7.65;;;3.70;99.90;;;;;;4995383;28;20167;-65
2021/11/25 08:39:17;;;;;;;9.17;6.43;;;3.70;99.90;;;;;;4995555;28;20174;-65
2021/11/25 08:41:43;;;;;;;9.67;7.17;;;3.80;99.90;;;;;;4995149;28;20175;-65
2021/11/25 08:44:08;;;;;;;10.33;7.20;;;3.70;99.90;;;;;;4995454;28;20191;-65
2021/11/25 08:46:34;;;;;;;9.17;5.27;;;3.70;99.90;;;;;;4994866;28;20164;-66
2021/11/25 08:49:00;;;;;;;9.97;6.27;;;3.60;99.90;;;;;;4995411;28;20171;-65
2021/11/25 08:51:28;;;;;;;19.38;5.93;;;3.60;99.90;;;;;;4995611;28;20226;-66
2021/11/25 08:53:54;;;;;;;11.60;5.53;;;3.50;99.90;;;;;;4995309;28;20191;-66
2021/11/25 08:56:19;;;;;;;11.80;7.87;;;3.50;99.90;;;;;;4995153;28;20235;-65
2021/11/25 08:58:45;;;;;;;13.60;5.43;;;3.60;99.90;;;;;;4984839;28;20186;-66
2021/11/25 09:01:11;;;;;;;7.57;6.10;;;3.50;99.90;;;;;;4975906;28;20203;-66
2021/11/25 09:03:36;;;;;;;7.70;6.60;;;3.50;99.90;;;;;;4975529;28;20618;-66
2021/11/25 09:06:02;;;;;;;6.47;4.93;;;3.60;99.90;;;;;;4975876;28;20252;-66
2021/11/25 09:08:29;;;;;;;9.73;6.63;;;3.60;99.90;;;;;;4975641;28;20173;-66
2021/11/25 09:10:55;;;;;;;11.02;5.93;;;3.60;99.90;;;;;;4975861;28;20622;-66
2021/11/25 09:13:20;;;;;;;14.48;7.90;;;3.60;99.90;;;;;;4974115;28;20200;-66
2021/11/25 09:15:47;;;;;;;10.20;5.10;;;3.70;99.90;;;;;;4975552;28;20172;-66
2021/11/25 09:18:12;;;;;;;8.02;6.28;;;3.70;99.90;;;;;;4975374;28;20530;-65
2021/11/25 09:20:43;;;;;;;8.90;5.60;;;3.80;99.90;;;;;;4974644;28;20259;-66
2021/11/25 09:23:12;;;;;;;16.88;6.13;;;3.80;99.90;;;;;;4975596;28;20602;-65
2021/11/25 09:25:42;;;;;;;7.22;4.90;;;3.80;99.90;;;;;;4975413;28;20633;-66
2021/11/25 09:28:10;;;;;;;10.45;6.90;;;3.80;99.90;;;;;;4975043;28;20220;-65
2021/11/25 09:30:36;;;;;;;11.05;5.43;;;3.80;99.90;;;;;;4975622;28;20247;-66
2021/11/25 09:33:02;;;;;;;6.38;4.30;;;3.80;99.90;;;;;;4975459;28;20196;-66
2021/11/25 09:35:27;;;;;;;10.63;6.17;;;3.80;99.90;;;;;;4974139;28;20264;-66
2021/11/25 09:37:54;;;;;;;9.90;4.73;;;3.80;99.90;;;;;;4974958;28;20222;-66
2021/11/25 09:40:27;;;;;;;9.52;5.88;;;3.80;99.90;;;;;;4975332;28;20179;-66
2021/11/25 09:43:00;;;;;;;12.82;5.78;;;3.80;99.90;;;;;;4975060;28;20227;-66
2021/11/25 09:45:27;;;;;;;8.55;5.30;;;3.70;99.90;;;;;;4975349;28;20172;-66
2021/11/25 09:47:55;;;;;;;10.98;9.80;;;3.70;99.90;;;;;;4974972;28;20164;-66
2021/11/25 09:50:23;;;;;;;9.50;6.25;;;3.70;99.90;;;;;;4975293;28;20191;-66
2021/11/25 09:52:51;;;;;;;12.88;7.03;;;3.70;99.90;;;;;;4975448;28;20191;-66
2021/11/25 09:55:17;;;;;;;14.18;7.38;;;3.80;99.90;;;;;;4975278;28;20160;-66
2021/11/25 09:57:43;;;;;;;17.00;7.97;;;3.90;99.90;;;;;;4976601;28;20168;-65
2021/11/25 10:00:09;;;;;;;8.80;7.23;;;4.00;99.90;;;;;;4994312;28;20171;-66
2021/11/25 10:02:35;;;;;;;13.27;7.15;;;4.10;99.90;;;;;;4994181;28;20234;-66
2021/11/25 10:05:02;;;;;;;8.23;5.17;;;4.10;99.90;;;;;;4994253;28;20211;-66
2021/11/25 10:07:33;;;;;;;10.13;6.63;;;4.10;99.90;;;;;;4992689;28;20171;-65
2021/11/25 10:10:23;;;;;;;14.23;8.32;;;4.10;99.90;;;;;;4993112;28;20176;-65
2021/11/25 10:12:49;;;;;;;11.77;7.03;;;4.10;99.90;;;;;;4993063;28;20557;-66
2021/11/25 10:15:29;;;;;;;11.90;6.73;;;4.10;99.90;;;;;;4994453;28;20167;-66
2021/11/25 10:18:00;;;;;;;12.77;7.18;;;4.10;99.90;;;;;;4993954;28;20464;-66
2021/11/25 10:20:35;;;;;;;13.15;7.65;;;4.10;99.90;;;;;;4994335;28;20163;-66
2021/11/25 10:23:01;;;;;;;11.70;5.90;;;4.10;99.90;;;;;;4994103;28;20219;-66
2021/11/25 10:25:48;;;;;;;11.33;5.03;;;4.20;99.90;;;;;;4994319;28;20298;-66
2021/11/25 10:28:18;;;;;;;11.02;7.45;;;4.20;99.90;;;;;;4993900;28;20399;-66
2021/11/25 10:30:44;;;;;;;10.60;6.45;;;4.20;99.90;;;;;;4994112;28;20171;-66
2021/11/25 10:33:09;;;;;;;15.63;7.30;;;4.20;99.90;;;;;;4993889;28;20271;-65
2021/11/25 10:35:51;;;;;;;7.47;5.37;;;4.30;99.90;;;;;;4994230;28;20172;-66
2021/11/25 10:40:42;;;;;;;8.07;4.63;;;4.30;99.90;;;;;;4993773;28;20209;-65
2021/11/25 10:43:29;;;;;;;13.40;8.03;;;4.40;99.90;;;;;;4993683;28;20262;-66
2021/11/25 10:45:54;;;;;;;12.43;6.43;;;4.40;99.90;;;;;;4992772;28;20258;-65
2021/11/25 10:48:39;;;;;;;10.53;7.90;;;4.50;99.90;;;;;;4993751;28;20226;-65
2021/11/25 10:51:27;;;;;;;8.68;5.75;;;4.50;99.90;;;;;;4993838;28;20171;-65
2021/11/25 10:54:12;;;;;;;10.50;6.38;;;4.40;99.90;;;;;;4993805;28;20233;-66
2021/11/25 10:56:44;;;;;;;7.47;6.05;;;4.40;99.90;;;;;;4993719;28;20201;-66
2021/11/25 10:59:14;;;;;;;10.10;6.78;;;4.50;99.90;;;;;;4980295;28;20207;-67
2021/11/25 11:01:43;;;;;;;11.63;6.30;;;4.50;99.90;;;;;;4973069;28;20180;-65
2021/11/25 11:04:09;;;;;;;11.63;6.00;;;4.60;99.90;;;;;;4974308;28;20203;-64
2021/11/25 11:06:38;;;;;;;7.00;5.53;;;4.60;99.90;;;;;;4974105;28;20639;-65
2021/11/25 11:09:06;;;;;;;8.80;6.57;;;4.50;99.90;;;;;;4974918;28;20507;-65
2021/11/25 11:11:35;;;;;;;13.60;7.30;;;4.60;99.90;;;;;;4976965;28;20259;-67
2021/11/25 11:14:17;;;;;;;7.97;6.78;;;4.60;99.90;;;;;;4977265;28;20193;-66
2021/11/25 11:16:46;;;;;;;9.98;7.15;;;4.50;99.90;;;;;;4978174;28;20235;-64
2021/11/25 11:19:14;;;;;;;8.65;5.78;;;4.50;99.90;;;;;;4978861;28;20638;-65
2021/11/25 11:21:45;;;;;;;11.02;5.95;;;4.50;99.90;;;;;;4979880;28;20254;-69
2021/11/25 11:24:17;;;;;;;11.55;6.60;;;4.50;99.90;;;;;;4979588;28;20193;-66
2021/11/25 11:26:50;;;;;;;14.90;7.03;;;4.50;99.90;;;;;;4979094;28;20243;-64
2021/11/25 11:29:27;;;;;;;13.55;7.38;;;4.50;99.90;;;;;;4979510;28;20211;-64
2021/11/25 11:31:56;;;;;;;11.63;5.80;;;4.50;99.90;;;;;;4979536;28;20207;-66
2021/11/25 11:34:23;;;;;;;15.65;8.48;;;4.50;99.90;;;;;;4978533;28;20223;-64
2021/11/25 11:36:52;;;;;;;8.93;5.88;;;4.50;99.90;;;;;;4977550;28;20684;-66
2021/11/25 11:39:25;;;;;;;10.45;8.23;;;4.40;99.90;;;;;;4977577;28;20183;-66
2021/11/25 11:41:54;;;;;;;13.82;8.38;;;4.40;99.90;;;;;;4976587;28;20702;-65
2021/11/25 11:44:23;;;;;;;9.10;5.50;;;4.40;99.90;;;;;;4977608;28;20193;-65
2021/11/25 11:46:57;;;;;;;8.90;5.55;;;4.30;99.90;;;;;;4977789;28;20642;-66
2021/11/25 11:49:24;;;;;;;6.88;5.32;;;4.40;99.90;;;;;;4977538;28;20175;-66
2021/11/25 11:52:10;;;;;;;6.50;5.82;;;4.40;99.90;;;;;;4977142;28;20172;-66
2021/11/25 11:54:54;;;;;;;14.50;7.72;;;4.40;99.90;;;;;;4977164;28;20192;-66
2021/11/25 11:57:30;;;;;;;20.33;6.63;;;4.40;99.90;;;;;;4976599;28;20167;-66
2021/11/25 11:59:56;;;;;;;9.30;5.72;;;4.50;99.90;;;;;;4957838;28;20177;-66
2021/11/25 12:02:38;;;;;;;9.10;7.00;;;4.60;99.90;;;;;;4958063;28;20192;-66
2021/11/25 12:05:04;;;;;;;7.18;5.53;;;4.70;99.90;;;;;;4957940;28;20173;-66
2021/11/25 12:07:30;;;;;;;10.63;5.97;;;4.80;99.90;;;;;;4956279;29;20214;-66
2021/11/25 12:09:56;;;;;;;14.17;7.50;;;4.80;99.90;;;;;;4957550;28;20936;-67
2021/11/25 12:12:22;;;;;;;11.50;6.57;;;4.90;99.90;;;;;;4957593;28;20176;-66
2021/11/25 12:14:54;;;;;;;8.68;6.40;;;4.80;99.90;;;;;;4957216;28;20780;-67
2021/11/25 12:17:36;;;;;;;19.13;8.75;;;4.80;99.90;;;;;;4957072;28;20207;-66
2021/11/25 12:20:21;;;;;;;8.85;5.65;;;4.70;99.90;;;;;;4957407;28;20644;-66
2021/11/25 12:22:49;;;;;;;14.27;6.90;;;4.70;99.90;;;;;;4957163;28;20213;-66
2021/11/25 12:25:33;;;;;;;11.25;6.60;;;4.70;99.90;;;;;;4957368;29;20220;-66
2021/11/25 12:28:20;;;;;;;14.85;7.47;;;4.70;99.90;;;;;;4956871;28;20535;-66
2021/11/25 12:30:53;;;;;;;9.82;6.07;;;4.70;99.90;;;;;;4957130;28;20174;-67
2021/11/25 12:33:44;;;;;;;11.93;6.60;;;4.70;99.90;;;;;;4955367;29;20661;-66
2021/11/25 12:36:34;;;;;;;11.00;6.30;;;4.70;99.90;;;;;;4956642;28;20264;-67
2021/11/25 12:39:00;;;;;;;9.77;6.30;;;4.70;99.90;;;;;;4956961;28;20183;-66
2021/11/25 12:41:27;;;;;;;9.82;5.25;;;4.70;99.90;;;;;;4956617;28;20169;-67
2021/11/25 12:43:53;;;;;;;9.15;5.63;;;4.80;99.90;;;;;;4956643;28;20209;-65
2021/11/25 12:46:19;;;;;;;13.75;6.32;;;4.80;99.90;;;;;;4956169;29;20197;-65
2021/11/25 12:48:50;;;;;;;8.33;5.93;;;4.80;99.90;;;;;;4956754;29;20175;-65
2021/11/25 12:51:35;;;;;;;10.55;7.90;;;4.80;99.90;;;;;;4956412;28;20492;-65
2021/11/25 12:54:05;;;;;;;11.93;7.35;;;4.80;99.90;;;;;;4956785;28;20228;-65
2021/11/25 12:56:34;;;;;;;12.05;6.38;;;4.80;99.90;;;;;;4956434;28;20233;-66
2021/11/25 12:59:11;;;;;;;11.30;6.75;;;4.80;99.90;;;;;;4981368;28;20198;-68
2021/11/25 13:01:48;;;;;;;9.90;7.35;;;4.80;99.90;;;;;;4994234;28;20186;-66